Time,TemperatureF,DewpointF,PressureIn,WindDirection,WindDirectionDegrees,WindSpeedMPH,WindSpeedGustMPH,Humidity,HourlyPrecipIn,Conditions,Clouds,dailyrainin,SoftwareType,DateUTC
2013-03-18 00:00:00,68.5,68.5,29.71,ESE,120,6.3,6.3,100,0.00,CLR,,0.00,WeatherDisplay:10.37,2013-03-18 05:00:00,
2013-03-18 00:05:00,68.6,68.6,29.71,ESE,108,9.2,9.2,100,0.00,CLR,,0.00,WeatherDisplay:10.37,2013-03-18 05:05:00,
2013-03-18 00:10:00,68.5,68.5,29.71,SE,135,9.2,9.2,100,0.00,CLR,,0.00,WeatherDisplay:10.37,2013-03-18 05:10:00,
2013-03-18 00:15:00,68.5,68.5,29.71,SE,137,10.4,10.4,100,0.00,CLR,,0.00,WeatherDisplay:10.37,2013-03-18 05:15:00,
2013-03-18 00:20:00,68.5,68.5,29.71,South,188,5.8,5.8,100,0.00,CLR,,0.00,WeatherDisplay:10.37,2013-03-18 05:20:00,
2013-03-18 00:25:00,68.5,68.5,29.71,SSW,192,4.6,4.6,100,0.00,CLR,,0.00,WeatherDisplay:10.37,2013-03-18 05:25:00,
2013-03-18 00:30:00,68.5,68.5,29.71,SSE,160,7.4,7.4,100,0.00,CLR,,0.00,WeatherDisplay:10.37,2013-03-18 05:30:00,
2013-03-18 00:35:00,68.4,68.4,29.71,SE,146,18.4,18.4,100,0.00,CLR,,0.00,WeatherDisplay:10.37,2013-03-18 05:35:00,
2013-03-18 00:40:00,68.4,68.4,29.72,SSE,153,9.2,9.2,100,0.00,CLR,,0.00,WeatherDisplay:10.37,2013-03-18 05:40:00,
2013-03-18 00:45:00,68.3,68.3,29.71,SW,214,11.5,11.5,100,0.00,CLR,,0.00,WeatherDisplay:10.37,2013-03-18 05:45:00,
2013-03-18 00:50:00,68.3,68.3,29.71,ESE,120,6.9,6.9,100,0.00,CLR,,0.00,WeatherDisplay:10.37,2013-03-18 05:50:00,
2013-03-18 00:55:00,68.3,68.3,29.71,SSE,166,10.4,10.4,100,0.00,CLR,,0.00,WeatherDisplay:10.37,2013-03-18 05:55:00,
2013-03-18 01:00:00,68.2,68.2,29.71,ESE,117,6.9,6.9,100,0.00,CLR,,0.00,WeatherDisplay:10.37,2013-03-18 06:00:00,
2013-03-18 01:05:00,68.2,68.2,29.71,SE,130,6.9,6.9,100,0.00,CLR,,0.00,WeatherDisplay:10.37,2013-03-18 06:05:00,
2013-03-18 01:10:00,68.3,68.3,29.71,South,176,5.8,5.8,100,0.00,CLR,,0.00,WeatherDisplay:10.37,2013-03-18 06:10:00,
2013-03-18 01:15:00,68.3,68.3,29.71,South,182,3.5,3.5,100,0.00,CLR,,0.00,WeatherDisplay:10.37,2013-03-18 06:15:00,
2013-03-18 01:20:00,68.3,68.3,29.71,South,175,8.1,8.1,100,0.00,CLR,,0.00,WeatherDisplay:10.37,2013-03-18 06:20:00,
2013-03-18 01:25:00,68.3,68.3,29.71,South,171,6.9,6.9,100,0.00,CLR,,0.00,WeatherDisplay:10.37,2013-03-18 06:25:00,
2013-03-18 01:30:00,68.3,68.3,29.72,South,178,5.8,5.8,100,0.00,CLR,,0.00,WeatherDisplay:10.37,2013-03-18 06:30:00,
2013-03-18 01:35:00,68.3,68.3,29.72,SSE,162,11.5,11.5,100,0.00,CLR,,0.00,WeatherDisplay:10.37,2013-03-18 06:35:00,
2013-03-18 01:40:00,68.2,68.2,29.71,SE,134,5.8,5.8,100,0.00,CLR,,0.00,WeatherDisplay:10.37,2013-03-18 06:40:00,
2013-03-18 01:45:00,68.2,68.2,29.72,South,186,11.5,11.5,100,0.00,CLR,,0.00,WeatherDisplay:10.37,2013-03-18 06:45:00,
2013-03-18 01:50:00,68.2,68.2,29.72,SSE,153,16.1,16.1,100,0.00,CLR,,0.00,WeatherDisplay:10.37,2013-03-18 06:50:00,
2013-03-18 01:55:00,68.0,68.0,29.73,South,173,15.0,15.0,100,0.00,CLR,,0.00,WeatherDisplay:10.37,2013-03-18 06:55:00,
2013-03-18 02:00:00,67.9,67.9,29.73,South,181,12.7,12.7,100,0.00,CLR,,0.00,WeatherDisplay:10.37,2013-03-18 07:00:00,
2013-03-18 02:05:00,67.9,67.9,29.72,SSW,203,6.9,6.9,100,0.00,CLR,,0.00,WeatherDisplay:10.37,2013-03-18 07:05:00,
2013-03-18 02:10:00,68.0,68.0,29.72,South,190,6.9,6.9,100,0.00,CLR,,0.00,WeatherDisplay:10.37,2013-03-18 07:10:00,
2013-03-18 02:15:00,68.1,68.1,29.72,South,189,10.4,10.4,100,0.00,CLR,,0.00,WeatherDisplay:10.37,2013-03-18 07:15:00,
2013-03-18 02:20:00,68.2,68.2,29.72,South,175,12.7,12.7,100,0.00,CLR,,0.00,WeatherDisplay:10.37,2013-03-18 07:20:00,
2013-03-18 02:25:00,68.2,68.2,29.73,South,184,13.8,13.8,100,0.00,CLR,,0.00,WeatherDisplay:10.37,2013-03-18 07:25:00,
2013-03-18 02:30:00,68.2,67.9,29.73,SSE,159,8.1,8.1,99,0.00,CLR,,0.00,WeatherDisplay:10.37,2013-03-18 07:30:00,
2013-03-18 02:35:00,68.2,67.9,29.73,South,188,9.2,9.2,99,0.00,CLR,,0.00,WeatherDisplay:10.37,2013-03-18 07:35:00,
2013-03-18 02:40:00,68.3,68.0,29.73,SSE,163,4.6,4.6,99,0.00,CLR,,0.00,WeatherDisplay:10.37,2013-03-18 07:40:00,
2013-03-18 02:45:00,68.3,68.0,29.73,SSE,162,9.2,9.2,99,0.00,CLR,,0.00,WeatherDisplay:10.37,2013-03-18 07:45:00,
2013-03-18 02:50:00,68.4,68.1,29.73,SSW,200,7.4,7.4,99,0.00,CLR,,0.00,WeatherDisplay:10.37,2013-03-18 07:50:00,
2013-03-18 02:55:00,68.4,68.1,29.72,South,171,4.6,4.6,99,0.00,CLR,,0.00,WeatherDisplay:10.37,2013-03-18 07:55:00,
2013-03-18 03:00:00,68.4,68.1,29.72,SE,130,5.8,5.8,99,0.00,CLR,,0.00,WeatherDisplay:10.37,2013-03-18 08:00:00,
2013-03-18 03:05:00,68.4,68.1,29.71,South,170,9.2,9.2,99,0.00,CLR,,0.00,WeatherDisplay:10.37,2013-03-18 08:05:00,
2013-03-18 03:10:00,68.3,68.0,29.71,South,181,11.5,11.5,99,0.00,CLR,,0.00,WeatherDisplay:10.37,2013-03-18 08:10:00,
2013-03-18 03:15:00,68.2,67.9,29.71,SSE,154,16.1,16.1,99,0.00,CLR,,0.00,WeatherDisplay:10.37,2013-03-18 08:15:00,
2013-03-18 03:20:00,68.2,67.9,29.71,South,189,5.8,5.8,99,0.00,CLR,,0.00,WeatherDisplay:10.37,2013-03-18 08:20:00,
2013-03-18 03:25:00,68.1,67.8,29.71,SSW,209,15.0,15.0,99,0.00,CLR,,0.00,WeatherDisplay:10.37,2013-03-18 08:25:00,
2013-03-18 03:30:00,68.1,67.8,29.71,South,185,15.0,15.0,99,0.00,CLR,,0.00,WeatherDisplay:10.37,2013-03-18 08:30:00,
2013-03-18 03:35:00,68.0,67.7,29.71,South,191,5.8,5.8,99,0.00,CLR,,0.00,WeatherDisplay:10.37,2013-03-18 08:35:00,
2013-03-18 03:40:00,68.0,67.7,29.72,South,182,13.7,13.7,99,0.00,CLR,,0.00,WeatherDisplay:10.37,2013-03-18 08:40:00,
2013-03-18 03:45:00,67.9,67.3,29.72,SSW,204,11.5,11.5,98,0.00,CLR,,0.00,WeatherDisplay:10.37,2013-03-18 08:45:00,
2013-03-18 03:50:00,67.8,67.2,29.71,South,184,12.7,12.7,98,0.00,CLR,,0.00,WeatherDisplay:10.37,2013-03-18 08:50:00,
2013-03-18 03:55:00,67.8,67.2,29.71,South,171,11.5,11.5,98,0.00,CLR,,0.00,WeatherDisplay:10.37,2013-03-18 08:55:00,
2013-03-18 04:00:00,67.9,67.3,29.71,South,179,5.8,5.8,98,0.00,CLR,,0.00,WeatherDisplay:10.37,2013-03-18 09:00:00,
2013-03-18 04:05:00,67.8,66.9,29.71,South,175,3.5,3.5,97,0.00,CLR,,0.00,WeatherDisplay:10.37,2013-03-18 09:05:00,
2013-03-18 04:10:00,67.7,66.8,29.71,SSW,200,6.9,6.9,97,0.00,CLR,,0.00,WeatherDisplay:10.37,2013-03-18 09:10:00,
2013-03-18 04:15:00,67.6,66.7,29.71,South,176,5.8,5.8,97,0.00,CLR,,0.00,WeatherDisplay:10.37,2013-03-18 09:15:00,
2013-03-18 04:20:00,67.5,66.6,29.71,SSW,212,11.5,11.5,97,0.00,CLR,,0.00,WeatherDisplay:10.37,2013-03-18 09:20:00,
2013-03-18 04:25:00,67.4,66.5,29.71,SSW,203,10.4,10.4,97,0.00,CLR,,0.00,WeatherDisplay:10.37,2013-03-18 09:25:00,
2013-03-18 04:30:00,67.4,66.5,29.71,SSW,200,9.2,9.2,97,0.00,CLR,,0.00,WeatherDisplay:10.37,2013-03-18 09:30:00,
2013-03-18 04:35:00,67.3,66.4,29.71,SSW,195,3.5,3.5,97,0.00,CLR,,0.00,WeatherDisplay:10.37,2013-03-18 09:35:00,
2013-03-18 04:40:00,67.3,66.4,29.71,SSE,162,3.5,3.5,97,0.00,CLR,,0.00,WeatherDisplay:10.37,2013-03-18 09:40:00,
2013-03-18 04:45:00,67.2,66.3,29.71,South,181,9.2,9.2,97,0.00,CLR,,0.00,WeatherDisplay:10.37,2013-03-18 09:45:00,
2013-03-18 04:50:00,67.2,66.3,29.71,South,184,10.4,10.4,97,0.00,CLR,,0.00,WeatherDisplay:10.37,2013-03-18 09:50:00,
2013-03-18 04:55:00,67.2,66.3,29.71,South,190,5.3,5.3,97,0.00,CLR,,0.00,WeatherDisplay:10.37,2013-03-18 09:55:00,
2013-03-18 05:00:00,67.2,66.3,29.71,South,191,6.9,6.9,97,0.00,CLR,,0.00,WeatherDisplay:10.37,2013-03-18 10:00:00,
2013-03-18 05:05:00,67.1,65.9,29.71,SSW,193,12.7,12.7,96,0.00,CLR,,0.00,WeatherDisplay:10.37,2013-03-18 10:05:00,
2013-03-18 05:10:00,67.1,65.9,29.71,SSW,198,9.2,9.2,96,0.00,CLR,,0.00,WeatherDisplay:10.37,2013-03-18 10:10:00,
2013-03-18 05:15:00,67.1,65.9,29.71,SSE,158,5.8,5.8,96,0.00,CLR,,0.00,WeatherDisplay:10.37,2013-03-18 10:15:00,
2013-03-18 05:20:00,67.2,66.3,29.70,South,179,5.8,5.8,97,0.00,CLR,,0.00,WeatherDisplay:10.37,2013-03-18 10:20:00,
2013-03-18 05:25:00,67.3,66.4,29.70,South,191,3.5,3.5,97,0.00,CLR,,0.00,WeatherDisplay:10.37,2013-03-18 10:25:00,
2013-03-18 05:30:00,67.4,66.5,29.70,SSE,153,9.2,9.2,97,0.00,CLR,,0.00,WeatherDisplay:10.37,2013-03-18 10:30:00,
2013-03-18 05:35:00,67.5,66.6,29.70,South,179,6.9,6.9,97,0.00,CLR,,0.00,WeatherDisplay:10.37,2013-03-18 10:35:00,
2013-03-18 05:40:00,67.5,66.6,29.71,SSE,166,9.2,9.2,97,0.00,CLR,,0.00,WeatherDisplay:10.37,2013-03-18 10:40:00,
2013-03-18 05:45:00,67.5,66.6,29.71,SSE,162,12.7,12.7,97,0.00,CLR,,0.00,WeatherDisplay:10.37,2013-03-18 10:45:00,
2013-03-18 05:50:00,67.5,66.6,29.70,SE,141,4.6,4.6,97,0.00,CLR,,0.00,WeatherDisplay:10.37,2013-03-18 10:50:00,
2013-03-18 05:55:00,67.5,66.6,29.71,South,179,5.8,5.8,97,0.00,CLR,,0.00,WeatherDisplay:10.37,2013-03-18 10:55:00,
2013-03-18 06:00:00,67.5,66.6,29.70,South,172,5.8,5.8,97,0.00,CLR,,0.00,WeatherDisplay:10.37,2013-03-18 11:00:00,
2013-03-18 06:05:00,67.5,66.6,29.70,SSW,198,6.9,6.9,97,0.00,CLR,,0.00,WeatherDisplay:10.37,2013-03-18 11:05:00,
2013-03-18 06:10:00,67.4,66.5,29.71,ESE,113,5.8,5.8,97,0.00,CLR,,0.00,WeatherDisplay:10.37,2013-03-18 11:10:00,
2013-03-18 06:15:00,67.3,66.4,29.71,South,184,5.8,5.8,97,0.00,CLR,,0.00,WeatherDisplay:10.37,2013-03-18 11:15:00,
2013-03-18 06:20:00,67.3,66.4,29.71,SSE,162,6.9,6.9,97,0.00,CLR,,0.00,WeatherDisplay:10.37,2013-03-18 11:20:00,
2013-03-18 06:25:00,67.3,66.7,29.72,SSE,153,7.4,7.4,98,0.00,CLR,,0.00,WeatherDisplay:10.37,2013-03-18 11:25:00,
2013-03-18 06:30:00,67.2,66.6,29.73,South,175,9.2,9.2,98,0.00,CLR,,0.00,WeatherDisplay:10.37,2013-03-18 11:30:00,
2013-03-18 06:35:00,67.2,66.6,29.73,South,190,13.8,13.8,98,0.00,CLR,,0.00,WeatherDisplay:10.37,2013-03-18 11:35:00,
2013-03-18 06:40:00,67.1,66.5,29.74,South,181,5.8,5.8,98,0.00,CLR,,0.00,WeatherDisplay:10.37,2013-03-18 11:40:00,
2013-03-18 06:45:00,67.1,66.5,29.74,SSW,200,12.7,12.7,98,0.00,CLR,,0.00,WeatherDisplay:10.37,2013-03-18 11:45:00,
2013-03-18 06:50:00,67.2,66.6,29.75,South,179,12.7,12.7,98,0.00,CLR,,0.00,WeatherDisplay:10.37,2013-03-18 11:50:00,
2013-03-18 06:55:00,67.2,66.6,29.75,SSW,197,10.4,10.4,98,0.00,CLR,,0.00,WeatherDisplay:10.37,2013-03-18 11:55:00,
2013-03-18 07:00:00,67.2,66.3,29.76,SE,145,10.4,10.4,97,0.00,CLR,,0.00,WeatherDisplay:10.37,2013-03-18 12:00:00,
2013-03-18 07:05:00,67.2,66.3,29.75,SSE,153,4.6,4.6,97,0.00,CLR,,0.00,WeatherDisplay:10.37,2013-03-18 12:05:00,
2013-03-18 07:10:00,67.3,66.4,29.75,South,186,9.2,9.2,97,0.00,CLR,,0.00,WeatherDisplay:10.37,2013-03-18 12:10:00,
2013-03-18 07:15:00,67.3,66.4,29.76,SSW,192,6.9,6.9,97,0.00,CLR,,0.00,WeatherDisplay:10.37,2013-03-18 12:15:00,
2013-03-18 07:20:00,67.3,66.4,29.75,South,191,5.8,5.8,97,0.00,CLR,,0.00,WeatherDisplay:10.37,2013-03-18 12:20:00,
2013-03-18 07:25:00,67.3,66.4,29.75,South,185,5.8,5.8,97,0.00,CLR,,0.00,WeatherDisplay:10.37,2013-03-18 12:25:00,
2013-03-18 07:30:00,67.3,66.4,29.75,SSE,165,5.8,5.8,97,0.00,CLR,,0.00,WeatherDisplay:10.37,2013-03-18 12:30:00,
2013-03-18 07:35:00,67.4,66.5,29.75,South,169,3.5,3.5,97,0.00,CLR,,0.00,WeatherDisplay:10.37,2013-03-18 12:35:00,
2013-03-18 07:40:00,67.4,66.5,29.76,South,176,5.8,5.8,97,0.00,CLR,,0.00,WeatherDisplay:10.37,2013-03-18 12:40:00,
2013-03-18 07:45:00,67.4,66.2,29.75,SSE,160,3.5,3.5,96,0.00,CLR,,0.00,WeatherDisplay:10.37,2013-03-18 12:45:00,
2013-03-18 07:50:00,67.3,66.1,29.75,South,186,4.6,4.6,96,0.00,CLR,,0.00,WeatherDisplay:10.37,2013-03-18 12:50:00,
2013-03-18 07:55:00,67.5,66.3,29.76,South,187,3.5,3.5,96,0.00,CLR,,0.00,WeatherDisplay:10.37,2013-03-18 12:55:00,
2013-03-18 08:00:00,67.5,66.3,29.77,South,187,3.5,3.5,96,0.00,CLR,,0.00,WeatherDisplay:10.37,2013-03-18 13:00:00,
2013-03-18 08:05:00,67.5,66.3,29.77,South,188,1.1,0.0,96,0.00,CLR,,0.00,WeatherDisplay:10.37,2013-03-18 13:05:00,
2013-03-18 08:10:00,67.6,66.4,29.77,South,187,2.3,0.0,96,0.00,CLR,,0.00,WeatherDisplay:10.37,2013-03-18 13:10:00,
2013-03-18 08:15:00,67.6,66.1,29.77,SW,221,1.1,0.0,95,0.00,CLR,,0.00,WeatherDisplay:10.37,2013-03-18 13:15:00,
2013-03-18 08:20:00,67.6,66.1,29.78,SW,221,1.1,1.1,95,0.00,CLR,,0.00,WeatherDisplay:10.37,2013-03-18 13:20:00,
2013-03-18 08:25:00,67.7,66.2,29.79,SW,221,1.1,0.0,95,0.00,CLR,,0.00,WeatherDisplay:10.37,2013-03-18 13:25:00,
2013-03-18 08:30:00,67.8,66.3,29.79,SW,221,0.0,0.0,95,0.00,CLR,,0.00,WeatherDisplay:10.37,2013-03-18 13:30:00,
2013-03-18 08:35:00,67.8,66.3,29.79,SW,221,0.0,0.0,95,0.00,CLR,,0.00,WeatherDisplay:10.37,2013-03-18 13:35:00,
2013-03-18 08:40:00,67.9,66.1,29.79,SW,221,2.3,2.3,94,0.00,CLR,,0.00,WeatherDisplay:10.37,2013-03-18 13:40:00,
2013-03-18 08:45:00,68.0,66.2,29.79,SW,220,1.1,1.1,94,0.00,CLR,,0.00,WeatherDisplay:10.37,2013-03-18 13:45:00,
2013-03-18 08:50:00,68.1,66.3,29.79,SW,220,1.1,1.1,94,0.00,CLR,,0.00,WeatherDisplay:10.37,2013-03-18 13:50:00,
2013-03-18 08:55:00,68.4,66.6,29.79,SE,129,3.2,3.2,94,0.00,CLR,,0.00,WeatherDisplay:10.37,2013-03-18 13:55:00,
2013-03-18 09:00:00,68.7,66.6,29.79,SE,124,2.3,2.3,93,0.00,CLR,,0.00,WeatherDisplay:10.37,2013-03-18 14:00:00,
2013-03-18 09:05:00,68.8,66.4,29.80,ESE,108,3.5,3.5,92,0.00,CLR,,0.00,WeatherDisplay:10.37,2013-03-18 14:05:00,
2013-03-18 09:10:00,69.0,66.6,29.80,East,96,3.5,3.5,92,0.00,CLR,,0.00,WeatherDisplay:10.37,2013-03-18 14:10:00,
2013-03-18 09:15:00,69.2,66.8,29.80,ENE,74,0.0,0.0,92,0.00,CLR,,0.00,WeatherDisplay:10.37,2013-03-18 14:15:00,
2013-03-18 09:20:00,69.7,67.0,29.79,East,79,4.6,4.6,91,0.00,CLR,,0.00,WeatherDisplay:10.37,2013-03-18 14:20:00,
2013-03-18 09:25:00,69.6,66.5,29.80,East,82,3.5,3.5,90,0.00,CLR,,0.00,WeatherDisplay:10.37,2013-03-18 14:25:00,
2013-03-18 09:30:00,69.6,66.5,29.80,ESE,114,4.6,4.6,90,0.00,CLR,,0.00,WeatherDisplay:10.37,2013-03-18 14:30:00,
2013-03-18 09:35:00,69.5,66.4,29.80,ESE,115,4.6,4.6,90,0.00,CLR,,0.00,WeatherDisplay:10.37,2013-03-18 14:35:00,
2013-03-18 09:40:00,69.4,66.3,29.80,ESE,112,5.8,5.8,90,0.00,CLR,,0.00,WeatherDisplay:10.37,2013-03-18 14:40:00,
2013-03-18 09:45:00,69.4,66.3,29.80,East,101,1.1,1.6,90,0.00,CLR,,0.00,WeatherDisplay:10.37,2013-03-18 14:45:00,
2013-03-18 09:50:00,69.7,66.6,29.80,East,86,5.8,5.8,90,0.00,CLR,,0.00,WeatherDisplay:10.37,2013-03-18 14:50:00,
2013-03-18 09:55:00,70.1,67.0,29.80,ESE,103,5.8,5.8,90,0.00,CLR,,0.00,WeatherDisplay:10.37,2013-03-18 14:55:00,
2013-03-18 10:00:00,70.2,66.8,29.81,SE,134,3.5,3.5,89,0.00,CLR,,0.00,WeatherDisplay:10.37,2013-03-18 15:00:00,
2013-03-18 10:05:00,70.2,67.1,29.81,East,100,3.5,3.5,90,0.00,CLR,,0.00,WeatherDisplay:10.37,2013-03-18 15:05:00,
2013-03-18 10:10:00,70.4,67.0,29.81,SSE,161,3.5,3.5,89,0.00,CLR,,0.00,WeatherDisplay:10.37,2013-03-18 15:10:00,
2013-03-18 10:15:00,70.4,66.7,29.80,South,176,4.6,4.6,88,0.00,CLR,,0.00,WeatherDisplay:10.37,2013-03-18 15:15:00,
2013-03-18 10:20:00,70.5,66.8,29.81,ENE,77,5.8,5.8,88,0.00,CLR,,0.00,WeatherDisplay:10.37,2013-03-18 15:20:00,
2013-03-18 10:25:00,70.8,67.1,29.80,East,98,5.8,5.8,88,0.00,CLR,,0.00,WeatherDisplay:10.37,2013-03-18 15:25:00,
2013-03-18 10:30:00,71.0,66.9,29.81,East,99,4.6,4.6,87,0.00,CLR,,0.00,WeatherDisplay:10.37,2013-03-18 15:30:00,
2013-03-18 10:35:00,71.5,67.4,29.81,SE,143,4.6,4.6,87,0.00,CLR,,0.00,WeatherDisplay:10.37,2013-03-18 15:35:00,
2013-03-18 10:40:00,71.8,67.4,29.81,ESE,119,3.5,3.5,86,0.00,CLR,,0.00,WeatherDisplay:10.37,2013-03-18 15:40:00,
2013-03-18 10:45:00,71.8,67.0,29.81,SE,129,8.1,8.1,85,0.00,CLR,,0.00,WeatherDisplay:10.37,2013-03-18 15:45:00,
2013-03-18 10:50:00,71.6,67.2,29.81,SE,125,8.1,8.1,86,0.00,CLR,,0.00,WeatherDisplay:10.37,2013-03-18 15:50:00,
2013-03-18 10:55:00,71.3,66.9,29.80,SSE,159,5.8,5.8,86,0.00,CLR,,0.00,WeatherDisplay:10.37,2013-03-18 15:55:00,
2013-03-18 11:00:00,71.4,67.0,29.81,ESE,117,8.4,8.4,86,0.00,CLR,,0.00,WeatherDisplay:10.37,2013-03-18 16:00:00,
2013-03-18 11:05:00,71.8,67.4,29.81,ESE,111,8.1,8.1,86,0.00,CLR,,0.00,WeatherDisplay:10.37,2013-03-18 16:05:00,
2013-03-18 11:10:00,72.3,67.2,29.80,SE,133,5.8,5.8,84,0.00,CLR,,0.00,WeatherDisplay:10.37,2013-03-18 16:10:00,
2013-03-18 11:15:00,72.2,67.4,29.80,SE,141,3.5,3.5,85,0.00,CLR,,0.00,WeatherDisplay:10.37,2013-03-18 16:15:00,
2013-03-18 11:20:00,72.3,67.2,29.80,SE,124,6.9,6.9,84,0.00,CLR,,0.00,WeatherDisplay:10.37,2013-03-18 16:20:00,
2013-03-18 11:25:00,72.1,67.3,29.80,ESE,122,6.9,6.9,85,0.00,CLR,,0.00,WeatherDisplay:10.37,2013-03-18 16:25:00,
2013-03-18 11:30:00,72.1,67.3,29.80,ESE,119,9.2,9.2,85,0.00,CLR,,0.00,WeatherDisplay:10.37,2013-03-18 16:30:00,
2013-03-18 11:35:00,72.2,67.8,29.80,ESE,112,5.8,5.8,86,0.00,CLR,,0.00,WeatherDisplay:10.37,2013-03-18 16:35:00,
2013-03-18 11:40:00,72.8,68.4,29.80,ESE,122,9.2,9.2,86,0.00,CLR,,0.00,WeatherDisplay:10.37,2013-03-18 16:40:00,
2013-03-18 11:45:00,73.0,67.9,29.80,SSE,147,15.0,15.0,84,0.00,CLR,,0.00,WeatherDisplay:10.37,2013-03-18 16:45:00,
2013-03-18 11:50:00,73.3,68.5,29.79,ESE,102,6.9,6.9,85,0.00,CLR,,0.00,WeatherDisplay:10.37,2013-03-18 16:50:00,
2013-03-18 11:55:00,73.7,68.9,29.79,ESE,110,10.4,10.4,85,0.00,CLR,,0.00,WeatherDisplay:10.37,2013-03-18 16:55:00,
2013-03-18 12:00:00,73.6,68.8,29.79,SE,146,5.8,5.8,85,0.00,CLR,,0.00,WeatherDisplay:10.37,2013-03-18 17:00:00,
2013-03-18 12:05:00,73.6,68.5,29.79,SSE,168,9.4,9.4,84,0.00,CLR,,0.00,WeatherDisplay:10.37,2013-03-18 17:05:00,
2013-03-18 12:10:00,73.3,68.5,29.79,ESE,122,13.8,13.8,85,0.00,CLR,,0.00,WeatherDisplay:10.37,2013-03-18 17:10:00,
2013-03-18 12:15:00,73.7,68.9,29.79,South,174,5.8,5.8,85,0.00,CLR,,0.00,WeatherDisplay:10.37,2013-03-18 17:15:00,
2013-03-18 12:20:00,73.6,68.8,29.79,SSE,167,10.4,10.4,85,0.00,CLR,,0.00,WeatherDisplay:10.37,2013-03-18 17:20:00,
2013-03-18 12:25:00,73.9,69.1,29.79,South,170,5.8,5.8,85,0.00,CLR,,0.00,WeatherDisplay:10.37,2013-03-18 17:25:00,
2013-03-18 12:30:00,74.1,69.3,29.79,SE,139,5.8,5.8,85,0.00,CLR,,0.00,WeatherDisplay:10.37,2013-03-18 17:30:00,
2013-03-18 12:35:00,74.2,68.7,29.79,ESE,116,11.5,11.5,83,0.00,CLR,,0.00,WeatherDisplay:10.37,2013-03-18 17:35:00,
2013-03-18 12:40:00,74.0,68.9,29.79,ESE,120,12.7,12.7,84,0.00,CLR,,0.00,WeatherDisplay:10.37,2013-03-18 17:40:00,
2013-03-18 12:45:00,74.1,69.0,29.79,ENE,69,6.9,6.9,84,0.00,CLR,,0.00,WeatherDisplay:10.37,2013-03-18 17:45:00,
2013-03-18 12:50:00,74.0,69.2,29.79,SE,137,6.9,6.9,85,0.00,CLR,,0.00,WeatherDisplay:10.37,2013-03-18 17:50:00,
2013-03-18 12:55:00,73.8,69.3,29.79,SE,124,5.8,5.8,86,0.00,CLR,,0.00,WeatherDisplay:10.37,2013-03-18 17:55:00,
2013-03-18 13:00:00,73.8,69.0,29.79,SE,127,5.8,5.8,85,0.00,CLR,,0.00,WeatherDisplay:10.37,2013-03-18 18:00:00,
2013-03-18 13:05:00,74.0,69.2,29.79,South,180,10.4,10.4,85,0.00,CLR,,0.00,WeatherDisplay:10.37,2013-03-18 18:05:00,
2013-03-18 13:10:00,74.1,69.3,29.79,SSE,159,6.9,6.9,85,0.00,CLR,,0.00,WeatherDisplay:10.37,2013-03-18 18:10:00,
2013-03-18 13:15:00,74.1,68.6,29.79,SSW,206,10.4,10.4,83,0.00,CLR,,0.00,WeatherDisplay:10.37,2013-03-18 18:15:00,
2013-03-18 13:20:00,74.1,68.6,29.79,South,183,6.9,6.9,83,0.00,CLR,,0.00,WeatherDisplay:10.37,2013-03-18 18:20:00,
2013-03-18 13:25:00,73.9,68.4,29.79,ESE,103,12.7,12.7,83,0.00,CLR,,0.00,WeatherDisplay:10.37,2013-03-18 18:25:00,
2013-03-18 13:30:00,74.0,69.2,29.79,SSE,155,5.8,5.8,85,0.00,CLR,,0.00,WeatherDisplay:10.37,2013-03-18 18:30:00,
2013-03-18 13:35:00,74.3,69.5,29.79,SSE,166,6.9,6.9,85,0.00,CLR,,0.00,WeatherDisplay:10.37,2013-03-18 18:35:00,
2013-03-18 13:40:00,74.4,68.9,29.79,SE,124,5.8,5.8,83,0.00,CLR,,0.00,WeatherDisplay:10.37,2013-03-18 18:40:00,
2013-03-18 13:45:00,74.1,68.6,29.79,SE,141,5.8,5.8,83,0.00,CLR,,0.00,WeatherDisplay:10.37,2013-03-18 18:45:00,
2013-03-18 13:50:00,73.9,68.8,29.79,SE,124,9.2,9.2,84,0.00,CLR,,0.00,WeatherDisplay:10.37,2013-03-18 18:50:00,
2013-03-18 13:55:00,74.3,68.8,29.79,SE,126,8.1,8.1,83,0.00,CLR,,0.00,WeatherDisplay:10.37,2013-03-18 18:55:00,
2013-03-18 14:00:00,74.3,68.4,29.79,ESE,113,6.9,6.9,82,0.00,CLR,,0.00,WeatherDisplay:10.37,2013-03-18 19:00:00,
2013-03-18 14:05:00,74.3,68.8,29.79,South,182,5.8,5.8,83,0.00,CLR,,0.00,WeatherDisplay:10.37,2013-03-18 19:05:00,
2013-03-18 14:10:00,74.5,68.6,29.79,SSE,156,10.4,10.4,82,0.00,CLR,,0.00,WeatherDisplay:10.37,2013-03-18 19:10:00,
2013-03-18 14:15:00,74.8,68.9,29.78,South,174,6.9,6.9,82,0.00,CLR,,0.00,WeatherDisplay:10.37,2013-03-18 19:15:00,
2013-03-18 14:20:00,75.3,69.1,29.78,SE,143,10.4,10.4,81,0.00,CLR,,0.00,WeatherDisplay:10.37,2013-03-18 19:20:00,
2013-03-18 14:25:00,75.7,69.1,29.77,ESE,113,6.9,6.9,80,0.00,CLR,,0.00,WeatherDisplay:10.37,2013-03-18 19:25:00,
2013-03-18 14:30:00,76.0,69.4,29.77,SSW,202,6.9,6.9,80,0.00,CLR,,0.00,WeatherDisplay:10.37,2013-03-18 19:30:00,
2013-03-18 14:35:00,76.2,69.6,29.77,South,175,12.7,12.7,80,0.00,CLR,,0.00,WeatherDisplay:10.37,2013-03-18 19:35:00,
2013-03-18 14:40:00,76.4,69.0,29.77,South,186,11.5,11.5,78,0.00,CLR,,0.00,WeatherDisplay:10.37,2013-03-18 19:40:00,
2013-03-18 14:45:00,76.2,68.8,29.77,ESE,113,5.8,5.8,78,0.00,CLR,,0.00,WeatherDisplay:10.37,2013-03-18 19:45:00,
2013-03-18 14:50:00,76.2,69.2,29.76,SE,124,6.9,6.9,79,0.00,CLR,,0.00,WeatherDisplay:10.37,2013-03-18 19:50:00,
2013-03-18 14:55:00,76.4,69.4,29.76,SSE,155,8.1,8.1,79,0.00,CLR,,0.00,WeatherDisplay:10.37,2013-03-18 19:55:00,
2013-03-18 15:00:00,76.9,69.9,29.76,South,174,5.8,5.8,79,0.00,CLR,,0.00,WeatherDisplay:10.37,2013-03-18 20:00:00,
2013-03-18 15:05:00,76.8,69.8,29.76,East,100,6.9,6.9,79,0.00,CLR,,0.00,WeatherDisplay:10.37,2013-03-18 20:05:00,
2013-03-18 15:10:00,76.6,69.6,29.75,SE,131,4.6,4.6,79,0.00,CLR,,0.00,WeatherDisplay:10.37,2013-03-18 20:10:00,
2013-03-18 15:15:00,76.5,69.9,29.75,SE,137,5.8,5.8,80,0.00,CLR,,0.00,WeatherDisplay:10.37,2013-03-18 20:15:00,
2013-03-18 15:20:00,76.2,69.6,29.74,South,180,13.8,13.8,80,0.00,CLR,,0.00,WeatherDisplay:10.37,2013-03-18 20:20:00,
2013-03-18 15:25:00,76.3,69.7,29.74,SSE,154,6.9,6.9,80,0.00,CLR,,0.00,WeatherDisplay:10.37,2013-03-18 20:25:00,
2013-03-18 15:30:00,76.6,70.0,29.74,SE,138,5.8,5.8,80,0.00,CLR,,0.00,WeatherDisplay:10.37,2013-03-18 20:30:00,
2013-03-18 15:35:00,76.6,70.0,29.74,ESE,104,10.4,10.4,80,0.00,CLR,,0.00,WeatherDisplay:10.37,2013-03-18 20:35:00,
2013-03-18 15:40:00,76.6,70.0,29.74,ESE,122,4.6,4.6,80,0.00,CLR,,0.00,WeatherDisplay:10.37,2013-03-18 20:40:00,
2013-03-18 15:45:00,76.6,69.6,29.73,SE,124,6.9,6.9,79,0.00,CLR,,0.00,WeatherDisplay:10.37,2013-03-18 20:45:00,
2013-03-18 15:50:00,76.3,69.7,29.73,SE,139,5.8,5.8,80,0.00,CLR,,0.00,WeatherDisplay:10.37,2013-03-18 20:50:00,
2013-03-18 15:55:00,76.0,69.4,29.73,SE,136,10.4,10.4,80,0.00,CLR,,0.00,WeatherDisplay:10.37,2013-03-18 20:55:00,
2013-03-18 16:00:00,76.2,69.9,29.73,ESE,114,5.8,5.8,81,0.00,CLR,,0.00,WeatherDisplay:10.37,2013-03-18 21:00:00,
2013-03-18 16:05:00,76.5,69.9,29.73,South,188,6.9,6.9,80,0.00,CLR,,0.00,WeatherDisplay:10.37,2013-03-18 21:05:00,
2013-03-18 16:10:00,76.5,69.9,29.73,SSE,154,5.8,5.8,80,0.00,CLR,,0.00,WeatherDisplay:10.37,2013-03-18 21:10:00,
2013-03-18 16:15:00,76.3,69.7,29.73,ESE,120,6.9,6.9,80,0.00,CLR,,0.00,WeatherDisplay:10.37,2013-03-18 21:15:00,
2013-03-18 16:20:00,76.3,69.7,29.73,SE,127,9.2,9.2,80,0.00,CLR,,0.00,WeatherDisplay:10.37,2013-03-18 21:20:00,
2013-03-18 16:25:00,76.3,69.7,29.73,ESE,113,5.8,5.8,80,0.00,CLR,,0.00,WeatherDisplay:10.37,2013-03-18 21:25:00,
2013-03-18 16:30:00,76.3,69.7,29.73,ENE,78,10.4,10.4,80,0.00,CLR,,0.00,WeatherDisplay:10.37,2013-03-18 21:30:00,
2013-03-18 16:35:00,76.1,69.5,29.72,SE,127,8.4,8.4,80,0.00,CLR,,0.00,WeatherDisplay:10.37,2013-03-18 21:35:00,
2013-03-18 16:40:00,75.7,69.8,29.72,SE,124,5.8,5.8,82,0.00,CLR,,0.00,WeatherDisplay:10.37,2013-03-18 21:40:00,
2013-03-18 16:46:00,75.3,69.4,29.72,ESE,110,6.9,6.9,82,0.00,CLR,,0.00,WeatherDisplay:10.37,2013-03-18 21:46:00,
2013-03-18 16:52:00,75.4,69.9,29.72,SE,141,5.8,5.8,83,0.00,CLR,,0.00,WeatherDisplay:10.37,2013-03-18 21:52:00,
2013-03-18 16:57:00,75.5,69.6,29.72,ESE,121,9.2,9.2,82,0.00,CLR,,0.00,WeatherDisplay:10.37,2013-03-18 21:57:00,
2013-03-18 17:02:00,75.5,69.6,29.72,ESE,112,5.8,5.8,82,0.00,CLR,,0.00,WeatherDisplay:10.37,2013-03-18 22:02:00,
2013-03-18 17:07:00,75.5,69.6,29.72,SE,125,4.6,4.6,82,0.00,CLR,,0.00,WeatherDisplay:10.37,2013-03-18 22:07:00,
2013-03-18 17:12:00,75.6,69.7,29.72,South,176,5.8,5.8,82,0.00,CLR,,0.00,WeatherDisplay:10.37,2013-03-18 22:12:00,
2013-03-18 17:17:00,75.7,69.8,29.72,SE,139,3.5,3.5,82,0.00,CLR,,0.00,WeatherDisplay:10.37,2013-03-18 22:17:00,
2013-03-18 17:22:00,75.8,69.6,29.72,ESE,120,5.8,5.8,81,0.00,CLR,,0.00,WeatherDisplay:10.37,2013-03-18 22:22:00,
2013-03-18 17:27:00,75.4,69.2,29.73,SE,139,6.9,6.9,81,0.00,CLR,,0.00,WeatherDisplay:10.37,2013-03-18 22:27:00,
2013-03-18 17:32:00,75.0,69.1,29.73,SSE,166,5.8,5.8,82,0.00,CLR,,0.00,WeatherDisplay:10.37,2013-03-18 22:32:00,
2013-03-18 17:37:00,75.0,69.1,29.73,ESE,102,6.9,6.9,82,0.00,CLR,,0.00,WeatherDisplay:10.37,2013-03-18 22:37:00,
2013-03-18 17:42:00,75.1,68.9,29.73,ESE,115,8.1,8.1,81,0.00,CLR,,0.00,WeatherDisplay:10.37,2013-03-18 22:42:00,
2013-03-18 17:47:00,74.9,69.0,29.73,ESE,122,6.9,6.9,82,0.00,CLR,,0.00,WeatherDisplay:10.37,2013-03-18 22:47:00,
2013-03-18 17:52:00,75.0,69.5,29.73,SE,127,5.8,5.8,83,0.00,CLR,,0.00,WeatherDisplay:10.37,2013-03-18 22:52:00,
2013-03-18 17:57:00,75.0,69.1,29.73,East,84,6.9,6.9,82,0.00,CLR,,0.00,WeatherDisplay:10.37,2013-03-18 22:57:00,
2013-03-18 18:02:00,74.8,68.9,29.73,ESE,117,5.8,5.8,82,0.00,CLR,,0.00,WeatherDisplay:10.37,2013-03-18 23:02:00,
2013-03-18 18:07:00,74.7,69.2,29.73,ESE,121,3.5,3.5,83,0.00,CLR,,0.00,WeatherDisplay:10.37,2013-03-18 23:07:00,
2013-03-18 18:12:00,74.7,68.8,29.73,ESE,120,5.8,5.8,82,0.00,CLR,,0.00,WeatherDisplay:10.37,2013-03-18 23:12:00,
2013-03-18 18:17:00,74.3,68.8,29.73,East,97,6.9,6.9,83,0.00,CLR,,0.00,WeatherDisplay:10.37,2013-03-18 23:17:00,
2013-03-18 18:22:00,74.0,68.9,29.73,ESE,115,5.8,5.8,84,0.00,CLR,,0.00,WeatherDisplay:10.37,2013-03-18 23:22:00,
2013-03-18 18:27:00,73.6,68.8,29.73,ESE,116,5.8,5.8,85,0.00,CLR,,0.00,WeatherDisplay:10.37,2013-03-18 23:27:00,
2013-03-18 18:32:00,73.3,68.5,29.73,ESE,105,8.1,8.1,85,0.00,CLR,,0.00,WeatherDisplay:10.37,2013-03-18 23:32:00,
2013-03-18 18:37:00,72.8,68.7,29.73,ESE,117,5.8,5.8,87,0.00,CLR,,0.00,WeatherDisplay:10.37,2013-03-18 23:37:00,
2013-03-18 18:42:00,72.4,68.6,29.73,SE,136,5.8,5.8,88,0.00,CLR,,0.00,WeatherDisplay:10.37,2013-03-18 23:42:00,
2013-03-18 18:47:00,72.1,68.7,29.73,SE,129,9.4,9.4,89,0.00,CLR,,0.00,WeatherDisplay:10.37,2013-03-18 23:47:00,
2013-03-18 18:52:00,71.8,68.7,29.73,SE,124,5.8,5.8,90,0.00,CLR,,0.00,WeatherDisplay:10.37,2013-03-18 23:52:00,
2013-03-18 18:57:00,71.6,68.8,29.73,SE,141,4.6,4.6,91,0.00,CLR,,0.00,WeatherDisplay:10.37,2013-03-18 23:57:00,
2013-03-18 19:02:00,71.2,68.4,29.73,ESE,117,5.8,6.1,91,0.00,CLR,,0.00,WeatherDisplay:10.37,2013-03-19 00:02:00,
2013-03-18 19:07:00,70.9,68.5,29.74,SE,133,5.8,5.8,92,0.00,CLR,,0.00,WeatherDisplay:10.37,2013-03-19 00:07:00,
2013-03-18 19:12:00,70.7,68.3,29.74,ESE,115,6.3,6.3,92,0.00,CLR,,0.00,WeatherDisplay:10.37,2013-03-19 00:12:00,
2013-03-18 19:17:00,70.5,68.4,29.74,ESE,117,5.8,5.8,93,0.00,CLR,,0.00,WeatherDisplay:10.37,2013-03-19 00:17:00,
2013-03-18 19:23:00,70.4,68.3,29.74,ESE,110,4.6,4.6,93,0.00,CLR,,0.00,WeatherDisplay:10.37,2013-03-19 00:23:00,
2013-03-18 19:28:00,70.2,68.4,29.74,SE,124,4.6,4.6,94,0.00,CLR,,0.00,WeatherDisplay:10.37,2013-03-19 00:28:00,
2013-03-18 19:33:00,70.0,68.2,29.74,ESE,116,5.8,5.8,94,0.00,CLR,,0.00,WeatherDisplay:10.37,2013-03-19 00:33:00,
2013-03-18 19:38:00,69.8,68.0,29.74,ESE,114,4.6,4.6,94,0.00,CLR,,0.00,WeatherDisplay:10.37,2013-03-19 00:38:00,
2013-03-18 19:43:00,69.6,68.1,29.74,SE,124,5.8,5.8,95,0.00,CLR,,0.00,WeatherDisplay:10.37,2013-03-19 00:43:00,
2013-03-18 19:48:00,69.4,67.9,29.75,ESE,120,5.8,5.8,95,0.00,CLR,,0.00,WeatherDisplay:10.37,2013-03-19 00:48:00,
2013-03-18 19:53:00,69.4,67.9,29.75,ESE,120,3.5,3.5,95,0.00,CLR,,0.00,WeatherDisplay:10.37,2013-03-19 00:53:00,
2013-03-18 19:58:00,69.3,68.1,29.75,SE,124,5.8,5.8,96,0.00,CLR,,0.00,WeatherDisplay:10.37,2013-03-19 00:58:00,
2013-03-18 20:03:00,69.2,68.0,29.76,SE,127,3.5,3.5,96,0.00,CLR,,0.00,WeatherDisplay:10.37,2013-03-19 01:03:00,
2013-03-18 20:08:00,69.1,67.9,29.76,SE,127,4.6,4.6,96,0.00,CLR,,0.00,WeatherDisplay:10.37,2013-03-19 01:08:00,
2013-03-18 20:13:00,68.9,67.7,29.76,SE,132,4.6,4.6,96,0.00,CLR,,0.00,WeatherDisplay:10.37,2013-03-19 01:13:00,
2013-03-18 20:18:00,68.8,67.6,29.76,SE,128,2.3,2.3,96,0.00,CLR,,0.00,WeatherDisplay:10.37,2013-03-19 01:18:00,
2013-03-18 20:23:00,68.7,67.8,29.76,ESE,119,5.8,5.8,97,0.00,CLR,,0.00,WeatherDisplay:10.37,2013-03-19 01:23:00,
2013-03-18 20:28:00,68.6,67.7,29.76,ESE,120,3.5,3.5,97,0.00,CLR,,0.00,WeatherDisplay:10.37,2013-03-19 01:28:00,
2013-03-18 20:33:00,68.5,67.6,29.76,SE,124,3.5,3.5,97,0.00,CLR,,0.00,WeatherDisplay:10.37,2013-03-19 01:33:00,
2013-03-18 20:38:00,68.4,67.8,29.76,SE,128,5.8,5.8,98,0.00,CLR,,0.00,WeatherDisplay:10.37,2013-03-19 01:38:00,
2013-03-18 20:43:00,68.4,67.8,29.77,East,99,5.8,5.8,98,0.00,CLR,,0.00,WeatherDisplay:10.37,2013-03-19 01:43:00,
2013-03-18 20:48:00,68.4,67.8,29.77,SE,127,4.6,4.6,98,0.00,CLR,,0.00,WeatherDisplay:10.37,2013-03-19 01:48:00,
2013-03-18 20:53:00,68.3,67.7,29.77,SE,127,4.6,4.6,98,0.00,CLR,,0.00,WeatherDisplay:10.37,2013-03-19 01:53:00,
2013-03-18 20:58:00,68.2,67.6,29.77,ESE,120,5.3,5.3,98,0.00,CLR,,0.00,WeatherDisplay:10.37,2013-03-19 01:58:00,
2013-03-18 21:03:00,68.2,67.6,29.77,SE,129,5.8,5.8,98,0.00,CLR,,0.00,WeatherDisplay:10.37,2013-03-19 02:03:00,
2013-03-18 21:08:00,68.2,67.6,29.77,ESE,117,5.8,5.8,98,0.00,CLR,,0.00,WeatherDisplay:10.37,2013-03-19 02:08:00,
2013-03-18 21:13:00,68.2,67.9,29.77,ESE,122,6.9,6.9,99,0.00,CLR,,0.00,WeatherDisplay:10.37,2013-03-19 02:13:00,
2013-03-18 21:18:00,68.2,67.9,29.78,SE,129,4.6,4.6,99,0.00,CLR,,0.00,WeatherDisplay:10.37,2013-03-19 02:18:00,
2013-03-18 21:23:00,68.2,67.9,29.78,SE,124,3.5,3.5,99,0.00,CLR,,0.00,WeatherDisplay:10.37,2013-03-19 02:23:00,
2013-03-18 21:28:00,68.2,67.9,29.78,ESE,120,3.5,3.5,99,0.00,CLR,,0.00,WeatherDisplay:10.37,2013-03-19 02:28:00,
2013-03-18 21:33:00,68.2,67.9,29.79,SE,126,6.9,6.9,99,0.00,CLR,,0.00,WeatherDisplay:10.37,2013-03-19 02:33:00,
2013-03-18 21:38:00,68.1,67.8,29.79,SE,141,4.6,4.6,99,0.00,CLR,,0.00,WeatherDisplay:10.37,2013-03-19 02:38:00,
2013-03-18 21:43:00,68.0,67.7,29.79,ESE,122,5.8,5.8,99,0.00,CLR,,0.00,WeatherDisplay:10.37,2013-03-19 02:43:00,
2013-03-18 21:48:00,68.0,67.7,29.79,SE,129,3.5,3.5,99,0.00,CLR,,0.00,WeatherDisplay:10.37,2013-03-19 02:48:00,
2013-03-18 21:53:00,68.0,67.7,29.79,ESE,122,4.6,4.6,99,0.00,CLR,,0.00,WeatherDisplay:10.37,2013-03-19 02:53:00,
2013-03-18 21:58:00,67.9,67.6,29.80,South,178,2.3,2.3,99,0.00,CLR,,0.00,WeatherDisplay:10.37,2013-03-19 02:58:00,
2013-03-18 22:03:00,67.9,67.6,29.80,SE,139,4.6,4.6,99,0.00,CLR,,0.00,WeatherDisplay:10.37,2013-03-19 03:03:00,
2013-03-18 22:08:00,67.8,67.5,29.80,SE,131,5.8,5.8,99,0.00,CLR,,0.00,WeatherDisplay:10.37,2013-03-19 03:08:00,
2013-03-18 22:13:00,67.7,67.4,29.80,SE,144,2.3,2.3,99,0.00,CLR,,0.00,WeatherDisplay:10.37,2013-03-19 03:13:00,
2013-03-18 22:18:00,67.7,67.7,29.80,North,359,9.4,9.4,100,0.00,CLR,,0.00,WeatherDisplay:10.37,2013-03-19 03:18:00,
2013-03-18 22:23:00,67.7,67.7,29.83,NW,309,10.4,10.4,100,0.00,CLR,,0.00,WeatherDisplay:10.37,2013-03-19 03:23:00,
2013-03-18 22:28:00,68.1,68.1,29.85,NNW,344,9.2,9.2,100,0.00,CLR,,0.00,WeatherDisplay:10.37,2013-03-19 03:28:00,
2013-03-18 22:33:00,68.1,68.1,29.86,NNW,336,12.7,12.7,100,0.00,CLR,,0.00,WeatherDisplay:10.37,2013-03-19 03:33:00,
2013-03-18 22:38:00,68.1,68.1,29.83,NW,319,4.6,5.3,100,0.00,CLR,,0.00,WeatherDisplay:10.37,2013-03-19 03:38:00,
2013-03-18 22:43:00,68.1,68.1,29.84,ESE,107,3.5,3.5,100,0.00,CLR,,0.00,WeatherDisplay:10.37,2013-03-19 03:43:00,
2013-03-18 22:48:00,68.1,68.1,29.85,North,6,3.5,3.5,100,0.00,CLR,,0.00,WeatherDisplay:10.37,2013-03-19 03:48:00,
2013-03-18 22:53:00,68.0,68.0,29.85,South,190,0.0,1.2,100,0.00,CLR,,0.00,WeatherDisplay:10.37,2013-03-19 03:53:00,
2013-03-18 22:58:00,67.8,67.5,29.85,South,190,1.1,1.1,99,0.00,CLR,,0.00,WeatherDisplay:10.37,2013-03-19 03:58:00,
2013-03-18 23:00:00,67.8,67.5,29.85,South,190,1.1,1.1,99,0.00,CLR,,0.00,WeatherDisplay:10.37,2013-03-19 04:00:00,
2013-03-18 23:01:00,67.8,67.5,29.85,South,190,1.1,1.1,99,0.00,CLR,,0.00,WeatherDisplay:10.37,2013-03-19 04:01:00,
2013-03-18 23:06:00,67.6,67.3,29.84,South,190,2.1,2.1,99,0.00,CLR,,0.00,WeatherDisplay:10.37,2013-03-19 04:06:00,
2013-03-18 23:11:00,67.5,67.5,29.84,ENE,72,3.5,3.5,100,0.00,CLR,,0.00,WeatherDisplay:10.37,2013-03-19 04:11:00,
2013-03-18 23:16:00,67.5,67.5,29.84,ENE,71,4.6,4.6,100,0.00,CLR,,0.00,WeatherDisplay:10.37,2013-03-19 04:16:00,
2013-03-18 23:22:00,67.5,67.5,29.84,ENE,60,5.8,5.8,100,0.00,CLR,,0.00,WeatherDisplay:10.37,2013-03-19 04:22:00,
2013-03-18 23:27:00,67.4,67.4,29.83,ENE,60,4.6,4.6,100,0.00,CLR,,0.00,WeatherDisplay:10.37,2013-03-19 04:27:00,
2013-03-18 23:33:00,67.4,67.4,29.84,NE,37,5.3,5.3,100,0.00,CLR,,0.00,WeatherDisplay:10.37,2013-03-19 04:33:00,
2013-03-18 23:38:00,67.3,67.3,29.84,NNE,18,2.3,2.3,100,0.00,CLR,,0.00,WeatherDisplay:10.37,2013-03-19 04:38:00,
2013-03-18 23:43:00,67.3,67.3,29.84,NNE,18,2.3,2.3,100,0.00,CLR,,0.00,WeatherDisplay:10.37,2013-03-19 04:43:00,
2013-03-18 23:48:00,67.2,67.2,29.84,NNE,18,0.0,0.1,100,0.00,CLR,,0.00,WeatherDisplay:10.37,2013-03-19 04:48:00,
2013-03-18 23:53:00,67.1,67.1,29.85,NNE,18,0.0,0.0,100,0.00,CLR,,0.00,WeatherDisplay:10.37,2013-03-19 04:53:00,
2013-03-18 23:58:00,67.0,67.0,29.85,NNE,18,0.0,0.0,100,0.00,CLR,,0.00,WeatherDisplay:10.37,2013-03-19 04:58:00,